Time;durP1;ratioP1;P1;durP2;ratioP2;P2;SDS_P1;SDS_P2;PMS_P1;PMS_P2;Temp;Humidity;BMP_temperature;BMP_pressure;BME280_temperature;BME280_humidity;BME280_pressure;Samples;Min_cycle;Max_cycle;Signal;HPM_P1;HPM_P2
2023/10/19 00:01:56;;;;;;;21.10;18.90;;;12.90;99.90;;;;;;5033161;28;20479;-71
2023/10/19 00:04:22;;;;;;;22.97;20.70;;;12.90;99.90;;;;;;5032850;28;20489;-71
2023/10/19 00:06:48;;;;;;;20.17;18.27;;;12.90;99.90;;;;;;5033275;28;20395;-70
2023/10/19 00:09:15;;;;;;;19.73;17.77;;;12.90;99.90;;;;;;5032152;28;20258;-71
2023/10/19 00:11:41;;;;;;;18.33;16.43;;;12.90;99.90;;;;;;5033030;28;20492;-71
2023/10/19 00:14:15;;;;;;;18.90;17.00;;;12.80;99.90;;;;;;5033298;28;20428;-71
2023/10/19 00:16:56;;;;;;;16.83;15.23;;;12.90;99.90;;;;;;5033444;28;20387;-71
2023/10/19 00:19:22;;;;;;;17.23;15.43;;;13.00;99.90;;;;;;5033902;28;20435;-71
2023/10/19 00:21:51;;;;;;;18.87;17.07;;;13.00;99.90;;;;;;5036937;28;20400;-71
2023/10/19 00:24:22;;;;;;;16.17;14.60;;;13.00;99.90;;;;;;5037114;28;20246;-71
2023/10/19 00:26:48;;;;;;;17.30;15.60;;;13.10;99.90;;;;;;5035598;28;20393;-71
2023/10/19 00:32:02;;;;;;;16.70;14.93;;;13.20;99.90;;;;;;5037359;28;20482;-70
2023/10/19 00:34:31;;;;;;;15.87;14.37;;;13.30;99.90;;;;;;5036819;28;20428;-70
2023/10/19 00:36:56;;;;;;;14.47;13.03;;;13.30;99.90;;;;;;5036734;28;20830;-69
2023/10/19 00:39:27;;;;;;;13.83;12.53;;;13.40;99.90;;;;;;5036940;28;20815;-70
2023/10/19 00:41:58;;;;;;;14.17;12.77;;;13.40;99.90;;;;;;5036524;28;20409;-70
2023/10/19 00:44:35;;;;;;;12.47;11.10;;;13.50;99.90;;;;;;5036729;28;20439;-71
2023/10/19 00:47:07;;;;;;;13.87;11.80;;;13.60;99.90;;;;;;5036878;28;20390;-71
2023/10/19 00:49:33;;;;;;;12.70;11.33;;;13.60;99.90;;;;;;5036984;28;20388;-71
2023/10/19 00:52:10;;;;;;;15.77;14.27;;;13.70;99.90;;;;;;5036035;28;20446;-71
2023/10/19 00:57:22;;;;;;;12.40;11.20;;;13.80;99.90;;;;;;5036508;28;20486;-71
2023/10/19 00:59:53;;;;;;;15.63;14.00;;;13.80;99.90;;;;;;5036670;28;20872;-71
2023/10/19 01:02:21;;;;;;;14.10;12.70;;;13.80;99.90;;;;;;5036511;28;20389;-71
2023/10/19 01:05:05;;;;;;;14.07;12.67;;;13.70;99.90;;;;;;5036186;28;20460;-71
2023/10/19 01:07:33;;;;;;;12.80;11.60;;;13.70;99.90;;;;;;5036640;28;20387;-71
2023/10/19 01:10:11;;;;;;;12.87;11.03;;;13.70;99.90;;;;;;5034816;28;20565;-70
2023/10/19 01:12:40;;;;;;;13.17;11.93;;;13.70;99.90;;;;;;5036438;28;20527;-71
2023/10/19 01:15:17;;;;;;;14.03;12.63;;;13.70;99.90;;;;;;5035884;28;20939;-70
2023/10/19 01:17:53;;;;;;;13.57;12.17;;;13.60;99.90;;;;;;5034879;28;20479;-70
2023/10/19 01:21:07;;;;;;;13.63;12.17;;;13.70;99.90;;;;;;5034777;28;20398;-71
2023/10/19 01:25:58;;;;;;;11.50;10.40;;;13.70;99.90;;;;;;5036804;28;20436;-70
2023/10/19 01:31:16;;;;;;;10.17;9.17;;;13.80;99.90;;;;;;5035682;28;20520;-71
2023/10/19 01:33:44;;;;;;;10.83;9.30;;;13.90;99.90;;;;;;5034707;28;20443;-71
2023/10/19 01:36:24;;;;;;;12.03;8.50;;;13.90;99.90;;;;;;5035753;28;20432;-71
2023/10/19 01:39:00;;;;;;;9.30;8.07;;;14.00;99.90;;;;;;5034492;28;20433;-71
2023/10/19 01:41:26;;;;;;;11.23;7.60;;;14.10;99.90;;;;;;5036328;28;20381;-71
2023/10/19 01:44:04;;;;;;;8.67;7.83;;;14.20;99.90;;;;;;5036708;28;20411;-71
2023/10/19 01:46:36;;;;;;;9.47;8.57;;;14.20;99.90;;;;;;5036050;28;20383;-71
2023/10/19 01:49:03;;;;;;;7.53;6.50;;;14.40;99.90;;;;;;5036142;28;20514;-71
2023/10/19 01:51:32;;;;;;;10.07;8.77;;;14.40;99.90;;;;;;5035919;28;20450;-71
2023/10/19 01:54:00;;;;;;;8.63;7.47;;;14.40;99.90;;;;;;5034883;28;20421;-73
2023/10/19 01:56:26;;;;;;;8.67;7.77;;;14.60;99.90;;;;;;5034631;28;20409;-71
2023/10/19 01:58:54;;;;;;;9.20;8.20;;;14.70;99.90;;;;;;5036119;28;20394;-71
2023/10/19 02:03:46;;;;;;;7.50;6.80;;;14.90;99.90;;;;;;5036105;28;20412;-71
2023/10/19 02:06:19;;;;;;;8.40;7.33;;;14.90;99.90;;;;;;5035894;28;20231;-72
2023/10/19 02:09:21;;;;;;;8.20;7.50;;;15.00;99.90;;;;;;5034283;28;20492;-71
2023/10/19 02:11:48;;;;;;;6.80;6.20;;;15.00;99.90;;;;;;5035895;28;20462;-72
2023/10/19 02:14:15;;;;;;;7.37;6.67;;;15.00;99.90;;;;;;5035882;28;20405;-71
2023/10/19 02:16:52;;;;;;;10.90;9.80;;;15.00;99.90;;;;;;5034874;28;20915;-71
2023/10/19 02:19:19;;;;;;;7.80;7.10;;;15.10;99.90;;;;;;5035191;28;20389;-71
2023/10/19 02:21:48;;;;;;;8.77;7.97;;;15.10;99.90;;;;;;5035239;28;20481;-71
2023/10/19 02:24:14;;;;;;;9.10;8.20;;;15.10;99.90;;;;;;5033539;28;20919;-72
2023/10/19 02:26:44;;;;;;;7.03;6.40;;;15.10;99.90;;;;;;5033586;28;20413;-72
2023/10/19 02:29:10;;;;;;;9.70;8.80;;;15.10;99.90;;;;;;5033346;28;20500;-72
2023/10/19 02:31:39;;;;;;;7.40;6.50;;;15.10;99.90;;;;;;5035053;28;20445;-71
2023/10/19 02:34:11;;;;;;;8.80;8.00;;;15.00;99.90;;;;;;5034718;28;20410;-71
2023/10/19 02:36:39;;;;;;;10.73;9.60;;;15.00;99.90;;;;;;5034527;28;20805;-71
2023/10/19 02:39:09;;;;;;;9.80;8.00;;;15.00;99.90;;;;;;5034547;28;20431;-71
2023/10/19 02:41:36;;;;;;;10.93;8.60;;;14.90;99.90;;;;;;5033971;28;20876;-72
2023/10/19 02:46:34;;;;;;;9.80;8.80;;;14.70;99.90;;;;;;5014896;28;20947;-72
2023/10/19 02:49:11;;;;;;;9.23;8.43;;;14.60;99.90;;;;;;5014588;28;20421;-72
2023/10/19 02:51:38;;;;;;;7.20;6.50;;;14.60;99.90;;;;;;5015183;28;20180;-72
2023/10/19 02:54:06;;;;;;;10.30;9.23;;;14.50;99.90;;;;;;5033919;28;20405;-72
2023/10/19 02:56:35;;;;;;;8.10;7.37;;;14.50;99.90;;;;;;5014379;28;20412;-71
2023/10/19 02:59:03;;;;;;;7.20;6.53;;;14.50;99.90;;;;;;5014637;28;20418;-72
2023/10/19 03:01:31;;;;;;;12.70;9.10;;;14.40;99.90;;;;;;5014341;28;20405;-70
2023/10/19 03:04:00;;;;;;;6.97;6.27;;;14.30;99.90;;;;;;5014369;28;20408;-71
2023/10/19 03:06:32;;;;;;;6.73;5.90;;;14.30;99.90;;;;;;5033213;28;20415;-72
2023/10/19 03:09:00;;;;;;;6.80;6.20;;;14.30;99.90;;;;;;5034057;28;20386;-71
2023/10/19 03:11:27;;;;;;;8.53;7.00;;;14.30;99.90;;;;;;5034131;28;20453;-71
2023/10/19 03:13:54;;;;;;;10.20;7.10;;;14.30;99.90;;;;;;5033794;28;20491;-71
2023/10/19 03:16:21;;;;;;;6.10;5.57;;;14.10;99.90;;;;;;5033057;28;20420;-71
2023/10/19 03:18:47;;;;;;;9.93;8.93;;;14.10;99.90;;;;;;5033797;28;20492;-71
2023/10/19 03:21:13;;;;;;;13.67;6.50;;;14.10;99.90;;;;;;5032504;28;20857;-71
2023/10/19 03:23:40;;;;;;;7.90;6.43;;;14.00;99.90;;;;;;5033740;28;20219;-71
2023/10/19 03:28:55;;;;;;;7.33;6.43;;;13.90;99.90;;;;;;5033796;28;20391;-71
2023/10/19 03:31:25;;;;;;;9.40;6.83;;;13.90;99.90;;;;;;5033712;28;20489;-71
2023/10/19 03:33:54;;;;;;;6.20;5.60;;;14.00;99.90;;;;;;5034007;28;20424;-71
2023/10/19 03:36:26;;;;;;;10.03;6.43;;;14.10;99.90;;;;;;5033552;28;20531;-71
2023/10/19 03:38:53;;;;;;;10.30;7.80;;;13.90;99.90;;;;;;5033568;28;20417;-71
2023/10/19 03:41:26;;;;;;;7.03;6.33;;;13.90;99.90;;;;;;5033443;28;20470;-70
2023/10/19 03:43:57;;;;;;;6.83;6.13;;;13.90;99.90;;;;;;5032277;28;20417;-71
2023/10/19 03:46:31;;;;;;;5.83;5.33;;;13.80;99.90;;;;;;5033690;28;20449;-71
2023/10/19 03:49:10;;;;;;;5.43;4.90;;;13.90;99.90;;;;;;5033846;28;20386;-71
2023/10/19 03:51:40;;;;;;;6.10;5.50;;;13.90;99.90;;;;;;5031907;28;20448;-71
2023/10/19 03:54:21;;;;;;;6.03;5.40;;;13.80;99.90;;;;;;5033073;28;20840;-71
2023/10/19 03:56:49;;;;;;;8.57;6.80;;;13.80;99.90;;;;;;5013699;28;20389;-71
2023/10/19 03:59:15;;;;;;;10.17;8.10;;;13.80;99.90;;;;;;5028558;28;20417;-70
2023/10/19 04:01:43;;;;;;;9.33;7.07;;;13.80;99.90;;;;;;5028726;28;20421;-71
2023/10/19 04:04:11;;;;;;;7.00;6.40;;;13.80;99.90;;;;;;5013408;28;20788;-72
2023/10/19 04:06:37;;;;;;;7.27;6.57;;;13.90;99.90;;;;;;5033276;28;20441;-72
2023/10/19 04:09:06;;;;;;;6.53;5.30;;;13.90;99.90;;;;;;5032867;28;20411;-72
2023/10/19 04:11:33;;;;;;;5.70;5.13;;;13.90;99.90;;;;;;5033031;28;20197;-71
2023/10/19 04:14:03;;;;;;;9.13;5.50;;;13.90;99.90;;;;;;5031817;28;20409;-72
2023/10/19 04:16:31;;;;;;;6.27;5.70;;;14.00;99.90;;;;;;5033061;28;20405;-71
2023/10/19 04:18:58;;;;;;;9.37;6.90;;;14.10;99.90;;;;;;5033355;28;20406;-71
2023/10/19 04:21:23;;;;;;;8.37;6.33;;;14.10;99.90;;;;;;5033416;28;20400;-73
2023/10/19 04:23:49;;;;;;;6.40;5.80;;;14.00;99.90;;;;;;5031944;28;20486;-71
2023/10/19 04:26:18;;;;;;;7.13;6.40;;;14.10;99.90;;;;;;5031876;28;20269;-72
2023/10/19 04:28:50;;;;;;;5.90;5.30;;;14.20;99.90;;;;;;5031705;28;20649;-72
2023/10/19 04:31:19;;;;;;;10.00;9.07;;;14.30;99.90;;;;;;5031593;28;20502;-72
2023/10/19 04:33:49;;;;;;;7.10;6.40;;;14.30;99.90;;;;;;5031657;28;20930;-73
2023/10/19 04:36:16;;;;;;;4.63;4.23;;;14.30;99.90;;;;;;5016756;28;20443;-73
2023/10/19 04:38:43;;;;;;;9.03;7.40;;;14.30;99.90;;;;;;5025802;28;20433;-72
2023/10/19 04:41:10;;;;;;;7.43;6.63;;;14.30;99.90;;;;;;5031594;28;20496;-73
2023/10/19 04:43:38;;;;;;;6.63;6.03;;;14.30;99.90;;;;;;5031141;28;20450;-73
2023/10/19 04:46:11;;;;;;;4.97;4.57;;;14.30;99.90;;;;;;5027604;28;21010;-73
2023/10/19 04:48:39;;;;;;;6.37;5.17;;;14.30;99.90;;;;;;5031749;28;20409;-73
2023/10/19 04:51:05;;;;;;;6.37;5.70;;;14.40;99.90;;;;;;5031634;28;20554;-73
2023/10/19 04:53:32;;;;;;;7.37;6.67;;;14.30;99.90;;;;;;5031402;28;20518;-73
2023/10/19 04:56:00;;;;;;;7.80;6.20;;;14.30;99.90;;;;;;5031525;28;20429;-72
2023/10/19 04:58:28;;;;;;;6.93;6.33;;;14.30;99.90;;;;;;5031322;28;20462;-72
2023/10/19 05:00:54;;;;;;;7.13;5.60;;;14.40;99.90;;;;;;5031333;28;20511;-72
2023/10/19 05:03:20;;;;;;;6.97;6.27;;;14.40;99.90;;;;;;5031162;28;20452;-72
2023/10/19 05:05:45;;;;;;;6.50;5.90;;;14.30;99.90;;;;;;5033695;28;20277;-72
2023/10/19 05:08:11;;;;;;;7.00;6.27;;;14.30;99.90;;;;;;5034875;28;20171;-72
2023/10/19 05:10:37;;;;;;;7.93;6.70;;;14.30;99.90;;;;;;5034746;28;20237;-72
2023/10/19 05:13:03;;;;;;;5.80;5.30;;;14.20;99.90;;;;;;5034666;28;20447;-72
2023/10/19 05:15:29;;;;;;;6.37;5.00;;;14.20;99.90;;;;;;5034631;28;20221;-72
2023/10/19 05:17:55;;;;;;;6.97;6.37;;;14.10;99.90;;;;;;5034214;28;20460;-71
2023/10/19 05:20:21;;;;;;;4.67;4.27;;;14.20;99.90;;;;;;5034560;28;20546;-73
2023/10/19 05:22:47;;;;;;;5.23;4.73;;;14.20;99.90;;;;;;5034515;28;20227;-73
2023/10/19 05:25:12;;;;;;;5.50;5.00;;;14.20;99.90;;;;;;5034199;28;20784;-72
2023/10/19 05:27:38;;;;;;;5.80;4.60;;;14.20;99.90;;;;;;5034342;28;20429;-72
2023/10/19 05:30:05;;;;;;;9.10;5.87;;;14.20;99.90;;;;;;5034601;28;20646;-73
2023/10/19 05:32:31;;;;;;;5.93;5.10;;;14.20;99.90;;;;;;5034332;28;20834;-73
2023/10/19 05:34:57;;;;;;;7.63;6.90;;;14.20;99.90;;;;;;5034218;28;20480;-73
2023/10/19 05:37:25;;;;;;;6.47;5.83;;;14.10;99.90;;;;;;5034612;28;20175;-73
2023/10/19 05:39:51;;;;;;;9.40;8.47;;;14.10;99.90;;;;;;5034441;28;20166;-72
2023/10/19 05:42:17;;;;;;;6.80;5.80;;;14.10;99.90;;;;;;5034241;28;20407;-72
2023/10/19 05:44:43;;;;;;;8.10;6.87;;;14.10;99.90;;;;;;5034229;28;20427;-72
2023/10/19 05:47:09;;;;;;;7.00;6.30;;;14.10;99.90;;;;;;5034361;28;20421;-72
2023/10/19 05:49:34;;;;;;;8.67;6.07;;;14.10;99.90;;;;;;5034012;28;20179;-71
2023/10/19 05:52:00;;;;;;;5.83;5.33;;;14.10;99.90;;;;;;5034304;28;20187;-72
2023/10/19 05:54:26;;;;;;;11.07;7.60;;;14.20;99.90;;;;;;5033859;28;20237;-73
2023/10/19 05:56:52;;;;;;;8.47;7.43;;;14.20;99.90;;;;;;5033807;28;20171;-71
2023/10/19 05:59:18;;;;;;;7.33;6.63;;;14.20;99.90;;;;;;5035295;28;20408;-73
2023/10/19 06:01:47;;;;;;;7.90;7.17;;;14.20;99.90;;;;;;5035318;28;20171;-71
2023/10/19 06:04:13;;;;;;;6.23;5.63;;;14.20;99.90;;;;;;5033821;28;20178;-72
2023/10/19 06:06:39;;;;;;;11.30;5.57;;;14.30;99.90;;;;;;5033669;28;20832;-72
2023/10/19 06:09:11;;;;;;;8.60;7.70;;;14.30;99.90;;;;;;5033709;28;20178;-72
2023/10/19 06:11:42;;;;;;;6.40;5.80;;;14.40;99.90;;;;;;5033539;28;20252;-71
2023/10/19 06:14:09;;;;;;;6.07;5.47;;;14.40;99.90;;;;;;5033730;28;20406;-71
2023/10/19 06:16:35;;;;;;;10.57;9.07;;;14.40;99.90;;;;;;5032806;28;20399;-72
2023/10/19 06:19:01;;;;;;;17.07;10.23;;;14.40;99.90;;;;;;5033796;28;20829;-72
2023/10/19 06:21:26;;;;;;;20.40;12.80;;;14.50;99.90;;;;;;5033587;28;20411;-70
2023/10/19 06:23:53;;;;;;;14.17;11.57;;;14.60;99.90;;;;;;5033332;28;20197;-70
2023/10/19 06:26:19;;;;;;;29.50;16.10;;;14.60;99.90;;;;;;5034486;28;20199;-71
2023/10/19 06:28:45;;;;;;;27.90;17.97;;;14.50;99.90;;;;;;5034714;28;20411;-71
2023/10/19 06:31:11;;;;;;;21.00;13.20;;;14.50;99.90;;;;;;5033382;28;20198;-74
2023/10/19 06:33:41;;;;;;;19.23;13.37;;;14.60;99.90;;;;;;5033419;28;20415;-71
2023/10/19 06:36:06;;;;;;;15.80;11.53;;;14.60;99.90;;;;;;5033122;28;20421;-72
2023/10/19 06:38:32;;;;;;;12.37;9.60;;;14.60;99.90;;;;;;5033214;28;20410;-71
2023/10/19 06:40:59;;;;;;;13.77;10.40;;;14.50;99.90;;;;;;5033298;28;20262;-70
2023/10/19 06:43:28;;;;;;;16.63;11.50;;;14.50;99.90;;;;;;5032822;28;20198;-73
2023/10/19 06:45:55;;;;;;;9.30;8.33;;;14.60;99.90;;;;;;5032898;28;20507;-71
2023/10/19 06:48:21;;;;;;;12.57;8.90;;;14.70;99.90;;;;;;5033008;28;20988;-73
2023/10/19 06:50:46;;;;;;;11.90;10.03;;;14.70;99.90;;;;;;5032965;28;20416;-71
2023/10/19 06:53:12;;;;;;;12.10;9.70;;;14.80;99.90;;;;;;5032831;28;20785;-71
2023/10/19 06:55:38;;;;;;;10.43;9.33;;;14.90;99.90;;;;;;5032153;28;20191;-70
2023/10/19 06:58:04;;;;;;;10.83;9.67;;;14.90;99.90;;;;;;5032631;28;20201;-74
2023/10/19 07:00:30;;;;;;;11.97;10.77;;;15.00;99.90;;;;;;5033981;28;20412;-70
2023/10/19 07:03:00;;;;;;;15.93;12.57;;;15.10;99.90;;;;;;5034068;28;20419;-70
2023/10/19 07:05:29;;;;;;;15.10;13.60;;;15.20;99.90;;;;;;5033440;28;20202;-71
2023/10/19 07:07:56;;;;;;;12.10;10.70;;;15.20;99.90;;;;;;5032506;28;21124;-68
2023/10/19 07:10:23;;;;;;;20.93;14.07;;;15.30;99.90;;;;;;5033769;28;20414;-70
2023/10/19 07:12:53;;;;;;;18.37;13.70;;;15.10;99.90;;;;;;5032470;28;20456;-70
2023/10/19 07:15:19;;;;;;;19.50;14.60;;;14.60;99.90;;;;;;5032139;28;20459;-69
2023/10/19 07:17:46;;;;;;;18.10;15.27;;;14.60;99.90;;;;;;5032198;28;20417;-72
2023/10/19 07:20:29;;;;;;;19.33;15.57;;;14.80;99.90;;;;;;5032277;28;20452;-72
2023/10/19 07:22:56;;;;;;;18.47;14.63;;;15.10;99.90;;;;;;5031619;28;20415;-72
2023/10/19 07:25:25;;;;;;;18.30;13.63;;;15.20;99.90;;;;;;5032120;28;20427;-70
2023/10/19 07:27:52;;;;;;;18.30;13.40;;;15.10;99.90;;;;;;5031800;28;21014;-72
2023/10/19 07:30:25;;;;;;;26.53;16.50;;;15.20;99.90;;;;;;5032293;28;20500;-73
2023/10/19 07:32:54;;;;;;;24.60;16.47;;;15.20;99.90;;;;;;5032318;28;20548;-70
2023/10/19 07:35:21;;;;;;;19.63;15.20;;;15.10;99.90;;;;;;5032111;28;20429;-76
2023/10/19 07:37:48;;;;;;;22.30;17.97;;;15.30;99.90;;;;;;5033556;28;20847;-76
2023/10/19 07:40:14;;;;;;;19.70;15.40;;;15.40;99.90;;;;;;5035278;28;20505;-77
2023/10/19 07:42:42;;;;;;;24.90;16.10;;;15.50;99.90;;;;;;5034533;28;20448;-76
2023/10/19 07:45:11;;;;;;;18.20;13.87;;;15.60;99.90;;;;;;5034008;28;20191;-76
2023/10/19 07:47:40;;;;;;;15.63;13.93;;;15.80;99.90;;;;;;5032992;28;20421;-72
2023/10/19 07:50:12;;;;;;;20.37;13.60;;;15.90;99.90;;;;;;5032108;28;20413;-70
2023/10/19 07:52:39;;;;;;;17.33;13.60;;;16.10;99.90;;;;;;5031764;28;20552;-72
2023/10/19 07:55:06;;;;;;;18.33;12.63;;;16.20;99.90;;;;;;5031835;28;20799;-71
2023/10/19 07:57:32;;;;;;;19.03;13.47;;;16.20;99.90;;;;;;5031938;28;20419;-71
2023/10/19 07:59:59;;;;;;;17.40;14.30;;;15.90;99.90;;;;;;5031832;28;20412;-70
2023/10/19 08:02:24;;;;;;;18.43;14.37;;;15.50;99.90;;;;;;5031842;28;20425;-70
2023/10/19 08:04:51;;;;;;;19.37;16.10;;;15.40;99.90;;;;;;5032567;28;20214;-74
2023/10/19 08:07:17;;;;;;;16.67;14.03;;;15.70;99.90;;;;;;5032111;28;20178;-71
2023/10/19 08:09:43;;;;;;;15.90;13.73;;;15.80;99.90;;;;;;5031732;28;21100;-69
2023/10/19 08:12:09;;;;;;;17.93;15.23;;;16.00;99.90;;;;;;5031627;28;20449;-70
2023/10/19 08:14:35;;;;;;;22.03;14.87;;;16.10;99.90;;;;;;5031874;28;20432;-70
2023/10/19 08:17:01;;;;;;;15.83;14.00;;;16.00;99.90;;;;;;5031719;28;20414;-71
2023/10/19 08:19:32;;;;;;;16.43;12.33;;;15.60;99.90;;;;;;5031729;28;20758;-73
2023/10/19 08:21:58;;;;;;;20.10;15.97;;;15.30;99.90;;;;;;5031754;28;20174;-72
2023/10/19 08:24:23;;;;;;;18.63;14.10;;;15.40;99.90;;;;;;5031788;28;20986;-72
2023/10/19 08:26:50;;;;;;;15.77;13.33;;;15.70;99.90;;;;;;5031807;28;20217;-71
2023/10/19 08:29:19;;;;;;;14.73;13.27;;;16.10;99.90;;;;;;5030983;28;20665;-76
2023/10/19 08:31:45;;;;;;;19.67;13.70;;;16.40;99.90;;;;;;5031797;28;20473;-70
2023/10/19 08:34:11;;;;;;;13.50;12.20;;;16.70;99.90;;;;;;5031398;28;20932;-69
2023/10/19 08:36:40;;;;;;;14.73;13.00;;;16.90;99.90;;;;;;5031729;28;20182;-69
2023/10/19 08:39:12;;;;;;;12.53;11.17;;;16.50;99.90;;;;;;5031804;28;20410;-69
2023/10/19 08:41:40;;;;;;;14.10;12.50;;;16.30;99.90;;;;;;5035577;28;20932;-69
2023/10/19 08:44:17;;;;;;;14.57;12.30;;;16.50;99.90;;;;;;5035187;28;20446;-70
2023/10/19 08:46:44;;;;;;;16.23;12.30;;;16.90;99.90;;;;;;5035795;28;20417;-69
2023/10/19 08:49:13;;;;;;;17.63;13.17;;;17.10;99.90;;;;;;5035587;28;20790;-71
2023/10/19 08:51:44;;;;;;;13.10;11.63;;;17.30;99.90;;;;;;5034820;28;20496;-75
2023/10/19 08:54:11;;;;;;;13.93;10.83;;;17.50;99.90;;;;;;5035514;28;20406;-73
2023/10/19 08:56:38;;;;;;;12.20;10.90;;;17.70;99.90;;;;;;5035007;28;20464;-74
2023/10/19 08:59:06;;;;;;;12.47;11.13;;;17.80;99.90;;;;;;5035216;28;20460;-70
2023/10/19 09:01:31;;;;;;;15.27;11.70;;;18.00;99.90;;;;;;5034975;28;20476;-70
2023/10/19 09:04:01;;;;;;;20.67;13.70;;;18.00;99.90;;;;;;5035256;28;20410;-71
2023/10/19 09:06:28;;;;;;;13.80;12.33;;;17.60;99.90;;;;;;5034829;28;20406;-70
2023/10/19 09:08:55;;;;;;;13.27;11.97;;;17.80;99.90;;;;;;5034915;28;20417;-69
2023/10/19 09:11:21;;;;;;;16.70;13.10;;;18.20;99.90;;;;;;5034698;28;20581;-71
2023/10/19 09:13:50;;;;;;;17.13;13.07;;;18.50;99.90;;;;;;5034692;28;20732;-71
2023/10/19 09:16:26;;;;;;;14.67;12.20;;;18.20;99.90;;;;;;5034699;28;20422;-72
2023/10/19 09:18:52;;;;;;;13.57;12.17;;;17.90;99.90;;;;;;5035980;28;20444;-70
2023/10/19 09:21:25;;;;;;;9.17;8.23;;;18.00;99.90;;;;;;5034786;28;20438;-71
2023/10/19 09:23:52;;;;;;;10.20;8.83;;;18.20;99.90;;;;;;5034188;28;20805;-70
2023/10/19 09:26:19;;;;;;;10.33;7.20;;;18.60;99.90;;;;;;5035862;28;20936;-71
2023/10/19 09:28:50;;;;;;;9.00;8.10;;;18.70;99.90;;;;;;5034880;28;20418;-70
2023/10/19 09:31:16;;;;;;;12.57;7.60;;;18.80;99.90;;;;;;5038446;28;21000;-70
2023/10/19 09:33:47;;;;;;;12.03;7.43;;;19.00;99.90;;;;;;5038152;28;20892;-70
2023/10/19 09:36:13;;;;;;;11.93;8.50;;;19.30;99.90;;;;;;5037591;28;20426;-70
2023/10/19 09:38:51;;;;;;;10.87;7.60;;;19.40;99.90;;;;;;5037362;28;20413;-70
2023/10/19 09:41:30;;;;;;;8.90;6.50;;;19.50;99.90;;;;;;5037137;28;20393;-69
2023/10/19 09:44:04;;;;;;;8.90;8.00;;;19.70;99.90;;;;;;5035904;28;20424;-70
2023/10/19 09:46:32;;;;;;;4.63;4.20;;;20.00;99.90;;;;;;5035648;28;20843;-72
2023/10/19 09:48:58;;;;;;;8.93;5.87;;;20.10;99.90;;;;;;5035468;28;20468;-72
2023/10/19 09:51:28;;;;;;;7.00;5.00;;;20.10;99.90;;;;;;5035180;28;20454;-71
2023/10/19 09:54:00;;;;;;;5.63;4.67;;;20.00;99.90;;;;;;5035248;28;20441;-71
2023/10/19 09:56:32;;;;;;;5.77;3.97;;;20.00;99.90;;;;;;5035797;28;20833;-71
2023/10/19 09:59:07;;;;;;;5.07;4.23;;;20.30;99.90;;;;;;5034223;28;20410;-70
2023/10/19 10:02:15;;;;;;;5.10;4.53;;;20.50;99.90;;;;;;5034280;28;20452;-71
2023/10/19 10:04:42;;;;;;;4.47;4.07;;;20.70;99.90;;;;;;5033631;28;21071;-72
2023/10/19 10:07:09;;;;;;;6.67;5.37;;;20.80;99.90;;;;;;5034078;28;20512;-72
2023/10/19 10:09:46;;;;;;;10.40;5.50;;;20.80;99.90;;;;;;5034609;28;20517;-71
2023/10/19 10:12:23;;;;;;;5.40;4.80;;;20.40;99.90;;;;;;5034171;28;20450;-71
2023/10/19 10:15:09;;;;;;;5.20;4.70;;;20.40;99.90;;;;;;5033784;28;20425;-70
2023/10/19 10:17:37;;;;;;;6.67;4.73;;;20.40;99.90;;;;;;5014359;28;20411;-70
2023/10/19 10:20:13;;;;;;;8.77;5.30;;;20.30;99.90;;;;;;5014057;28;20828;-70
2023/10/19 10:22:39;;;;;;;4.97;4.50;;;20.30;99.90;;;;;;5015267;28;20909;-71
2023/10/19 10:25:05;;;;;;;5.10;4.20;;;20.40;99.90;;;;;;5014889;28;20437;-71
2023/10/19 10:27:30;;;;;;;8.87;4.50;;;20.50;99.90;;;;;;5033502;28;20642;-71
2023/10/19 10:30:05;;;;;;;5.03;3.77;;;20.60;99.90;;;;;;5033536;28;20421;-73
2023/10/19 10:32:45;;;;;;;3.13;2.83;;;20.60;99.90;;;;;;5033976;28;20198;-73
2023/10/19 10:35:36;;;;;;;6.00;3.00;;;20.60;99.90;;;;;;5033303;28;20438;-73
2023/10/19 10:38:05;;;;;;;3.53;3.00;;;20.60;99.90;;;;;;5033130;28;20410;-73
2023/10/19 10:40:31;;;;;;;4.80;3.77;;;20.70;99.90;;;;;;5033140;28;20417;-74
2023/10/19 10:43:07;;;;;;;4.60;3.00;;;20.70;99.90;;;;;;5032664;28;20414;-73
2023/10/19 10:45:33;;;;;;;3.70;3.30;;;20.80;99.90;;;;;;5033019;28;20457;-74
2023/10/19 10:48:00;;;;;;;3.63;3.07;;;20.80;99.90;;;;;;5033112;28;20849;-73
2023/10/19 10:50:28;;;;;;;3.37;3.07;;;20.60;99.90;;;;;;5032900;28;20187;-71
2023/10/19 10:52:57;;;;;;;3.60;2.93;;;20.50;99.90;;;;;;5032953;28;20496;-70
2023/10/19 10:55:25;;;;;;;3.47;2.73;;;20.50;99.90;;;;;;5033062;28;20457;-71
2023/10/19 10:57:51;;;;;;;5.00;3.93;;;20.50;99.90;;;;;;5032949;28;20849;-70
2023/10/19 11:00:17;;;;;;;3.97;3.57;;;20.30;99.90;;;;;;5032847;28;20406;-69
2023/10/19 11:02:58;;;;;;;3.50;3.10;;;20.20;99.90;;;;;;5032206;28;20991;-69
2023/10/19 11:05:24;;;;;;;4.13;3.00;;;20.10;99.90;;;;;;5032331;28;20481;-71
2023/10/19 11:08:21;;;;;;;3.63;3.27;;;19.90;99.90;;;;;;5032548;28;20425;-69
2023/10/19 11:10:47;;;;;;;4.83;3.17;;;19.80;99.90;;;;;;5032602;28;20496;-71
2023/10/19 11:13:22;;;;;;;3.30;3.00;;;19.80;99.90;;;;;;5032663;28;20414;-69
2023/10/19 11:15:56;;;;;;;4.10;3.70;;;19.60;99.90;;;;;;5032546;28;20442;-70
2023/10/19 11:18:28;;;;;;;4.63;3.00;;;19.60;99.90;;;;;;5032587;28;20414;-69
2023/10/19 11:20:55;;;;;;;3.70;3.40;;;19.30;99.90;;;;;;5032569;28;20417;-71
2023/10/19 11:23:44;;;;;;;5.20;3.53;;;19.30;99.90;;;;;;5033441;28;20436;-69
2023/10/19 11:26:11;;;;;;;3.23;2.87;;;19.20;99.90;;;;;;5032295;28;20430;-70
2023/10/19 11:28:47;;;;;;;3.80;2.93;;;19.10;99.90;;;;;;5032381;28;20406;-70
2023/10/19 11:31:23;;;;;;;4.83;4.10;;;19.00;99.90;;;;;;5032318;28;20457;-69
2023/10/19 11:33:50;;;;;;;4.30;3.10;;;18.90;99.90;;;;;;5032163;28;20496;-70
2023/10/19 11:36:17;;;;;;;3.43;2.87;;;18.90;99.90;;;;;;5032228;28;20580;-71
2023/10/19 11:38:44;;;;;;;6.40;3.60;;;18.80;99.90;;;;;;5032469;28;20912;-70
2023/10/19 11:41:12;;;;;;;4.23;2.70;;;18.90;99.90;;;;;;5032267;28;20414;-70
2023/10/19 11:43:42;;;;;;;3.73;3.20;;;18.90;99.90;;;;;;5032205;28;20426;-69
2023/10/19 11:46:08;;;;;;;5.70;3.57;;;19.00;99.90;;;;;;5031920;28;20438;-70
2023/10/19 11:48:35;;;;;;;7.23;4.10;;;18.90;99.90;;;;;;5032064;28;20414;-70
2023/10/19 11:51:04;;;;;;;4.07;3.70;;;19.00;99.90;;;;;;5031953;28;20422;-67
2023/10/19 11:53:36;;;;;;;5.60;4.03;;;18.90;99.90;;;;;;5033583;28;20411;-69
2023/10/19 11:56:03;;;;;;;3.17;2.87;;;18.90;99.90;;;;;;5031646;28;20814;-69
2023/10/19 11:58:32;;;;;;;4.40;3.87;;;18.80;99.90;;;;;;5031809;28;20916;-71
2023/10/19 12:00:58;;;;;;;4.40;3.67;;;18.90;99.90;;;;;;5031796;28;20441;-71
2023/10/19 12:03:25;;;;;;;3.37;3.07;;;18.90;99.90;;;;;;5033056;28;20406;-72
2023/10/19 12:05:52;;;;;;;3.27;2.97;;;18.90;99.90;;;;;;5031429;28;20457;-70
2023/10/19 12:08:18;;;;;;;3.10;2.80;;;18.90;99.90;;;;;;5031608;28;20414;-71
2023/10/19 12:10:44;;;;;;;2.83;2.60;;;18.90;99.90;;;;;;5031855;28;20804;-69
2023/10/19 12:13:10;;;;;;;2.90;2.53;;;18.80;99.90;;;;;;5032172;28;20183;-71
2023/10/19 12:15:35;;;;;;;4.33;2.70;;;18.80;99.90;;;;;;5035877;28;20222;-71
2023/10/19 12:18:05;;;;;;;2.93;2.43;;;18.80;99.90;;;;;;5035971;28;20179;-69
2023/10/19 12:20:31;;;;;;;3.03;2.30;;;18.80;99.90;;;;;;5036039;28;20664;-72
2023/10/19 12:22:58;;;;;;;2.27;2.07;;;18.80;99.90;;;;;;5035709;28;20454;-69
2023/10/19 12:25:31;;;;;;;5.50;2.50;;;18.70;99.90;;;;;;5035633;28;20740;-69
2023/10/19 12:27:58;;;;;;;3.77;3.47;;;18.60;99.90;;;;;;5035742;28;20417;-71
2023/10/19 12:30:26;;;;;;;3.80;3.30;;;18.50;99.90;;;;;;5035667;28;20764;-71
2023/10/19 12:32:52;;;;;;;5.43;4.00;;;18.20;99.90;;;;;;5035685;28;20987;-71
2023/10/19 12:35:23;;;;;;;4.57;4.17;;;18.30;99.90;;;;;;5035595;28;20430;-69
2023/10/19 12:37:52;;;;;;;5.70;4.73;;;18.30;99.90;;;;;;5019883;28;20441;-74
2023/10/19 12:40:28;;;;;;;8.30;6.33;;;18.20;99.90;;;;;;5035072;28;20468;-70
2023/10/19 12:42:55;;;;;;;6.13;5.53;;;18.10;99.90;;;;;;5035046;28;20417;-70
2023/10/19 12:45:27;;;;;;;5.50;5.00;;;18.10;99.90;;;;;;5035059;28;20438;-70
2023/10/19 12:47:52;;;;;;;6.70;5.47;;;18.10;99.90;;;;;;5035337;28;20414;-70
2023/10/19 12:50:22;;;;;;;7.33;5.97;;;18.00;99.90;;;;;;5035336;28;20414;-71
2023/10/19 12:52:52;;;;;;;6.70;6.10;;;18.00;99.90;;;;;;5035257;28;20232;-71
2023/10/19 12:55:18;;;;;;;8.07;6.73;;;17.70;99.90;;;;;;5034970;28;20441;-69
2023/10/19 12:57:43;;;;;;;8.10;7.40;;;17.70;99.90;;;;;;5035355;28;20934;-69
2023/10/19 13:02:59;;;;;;;8.03;7.33;;;17.50;99.90;;;;;;5036906;28;20360;-72
2023/10/19 13:05:26;;;;;;;9.17;8.37;;;17.60;99.90;;;;;;5034972;28;20477;-71
2023/10/19 13:07:53;;;;;;;8.93;8.13;;;17.70;99.90;;;;;;5034943;28;20450;-71
2023/10/19 13:10:18;;;;;;;8.07;7.37;;;17.70;99.90;;;;;;5034923;28;20552;-71
2023/10/19 13:12:44;;;;;;;7.40;6.70;;;17.90;99.90;;;;;;5034777;28;20548;-70